createdAt,value
2022-08-10T00:01:00.228Z,19.43
2022-08-10T00:06:04.609Z,19.34
2022-08-10T00:11:15.421Z,19.30
2022-08-10T00:16:22.833Z,19.26
2022-08-10T00:21:27.376Z,19.12
2022-08-10T00:27:51.681Z,18.99
2022-08-10T00:31:59.657Z,18.89
2022-08-10T00:37:04.459Z,18.73
2022-08-10T00:42:11.469Z,18.69
2022-08-10T00:47:36.257Z,18.61
2022-08-10T00:52:43.972Z,18.55
2022-08-10T00:57:54.963Z,18.52
2022-08-10T01:03:01.601Z,18.47
2022-08-10T01:08:32.834Z,18.31
2022-08-10T01:13:45.545Z,18.03
2022-08-10T01:19:02.261Z,17.88
2022-08-10T01:24:51.261Z,17.65
2022-08-10T01:30:04.411Z,17.42
2022-08-10T01:35:18.039Z,17.12
2022-08-10T01:40:28.459Z,16.95
2022-08-10T01:45:45.123Z,16.97
2022-08-10T01:50:59.560Z,17.00
2022-08-10T01:56:08.476Z,16.82
2022-08-10T02:01:20.977Z,16.82
2022-08-10T02:06:29.045Z,16.88
2022-08-10T02:11:55.613Z,16.89
2022-08-10T02:17:02.416Z,16.65
2022-08-10T02:22:36.412Z,16.50
2022-08-10T02:27:38.153Z,16.30
2022-08-10T02:32:52.676Z,16.24
2022-08-10T02:38:07.226Z,16.11
2022-08-10T02:45:20.367Z,16.10
2022-08-10T02:48:59.636Z,15.98
2022-08-10T02:54:10.376Z,15.83
2022-08-10T02:59:23.575Z,15.74
2022-08-10T03:04:55.872Z,15.66
2022-08-10T03:10:04.547Z,15.67
2022-08-10T03:15:20.578Z,15.60
2022-08-10T03:20:36.649Z,15.60
2022-08-10T03:25:53.536Z,15.71
2022-08-10T03:31:01.905Z,15.69
2022-08-10T03:36:41.826Z,15.55
2022-08-10T03:41:41.739Z,15.41
2022-08-10T03:47:01.880Z,15.38
2022-08-10T03:52:09.167Z,15.20
2022-08-10T03:57:14.979Z,15.13
2022-08-10T04:02:44.273Z,15.24
2022-08-10T04:07:48.084Z,15.15
2022-08-10T04:12:52.835Z,15.16
2022-08-10T04:18:05.876Z,15.20
2022-08-10T04:23:20.184Z,15.19
2022-08-10T04:28:26.182Z,15.08
2022-08-10T04:33:34.567Z,15.14
2022-08-10T04:38:44.154Z,15.17
2022-08-10T04:43:48.993Z,15.30
2022-08-10T04:48:59.660Z,15.41
2022-08-10T04:54:08.444Z,15.49
2022-08-10T04:59:13.993Z,15.58
2022-08-10T05:04:38.498Z,15.84
2022-08-10T05:10:01.227Z,16.11
2022-08-10T05:15:12.204Z,16.34
2022-08-10T05:20:16.994Z,16.59
2022-08-10T05:25:22.893Z,16.79
2022-08-10T05:30:27.556Z,16.83
2022-08-10T05:35:56.248Z,16.97
2022-08-10T05:40:59.106Z,17.04
2022-08-10T05:46:17.054Z,17.17
2022-08-10T05:51:26.015Z,17.37
2022-08-10T05:56:53.435Z,17.48
2022-08-10T06:02:32.709Z,17.74
2022-08-10T06:07:28.307Z,17.87
2022-08-10T06:12:55.718Z,18.10
2022-08-10T06:18:03.840Z,18.38
2022-08-10T06:23:09.144Z,18.68
2022-08-10T06:28:18.940Z,18.95
2022-08-10T06:33:26.425Z,19.21
2022-08-10T06:38:34.846Z,19.38
2022-08-10T06:43:46.913Z,19.80
2022-08-10T06:49:01.396Z,20.72
2022-08-10T06:54:10.156Z,21.83
2022-08-10T06:59:27.087Z,22.79
2022-08-10T07:04:38.038Z,23.78
2022-08-10T07:09:45.099Z,24.55
2022-08-10T07:14:53.499Z,25.29
2022-08-10T07:20:01.766Z,25.76
2022-08-10T07:25:11.844Z,26.25
2022-08-10T07:30:17.553Z,26.77
2022-08-10T07:35:24.037Z,26.80
2022-08-10T07:40:29.047Z,27.13
2022-08-10T07:45:36.843Z,27.76
2022-08-10T07:50:43.662Z,28.62
2022-08-10T07:56:02.059Z,29.24
2022-08-10T08:01:18.868Z,29.75
2022-08-10T08:06:24.103Z,30.65
2022-08-10T08:11:30.303Z,30.30
2022-08-10T08:16:38.886Z,31.22
2022-08-10T08:24:05.949Z,31.69
2022-08-10T08:27:11.947Z,32.65
2022-08-10T08:32:22.717Z,33.23
2022-08-10T08:38:30.200Z,33.04
2022-08-10T08:43:28.483Z,33.97
2022-08-10T08:49:00.097Z,34.49
2022-08-10T08:54:39.923Z,34.94
2022-08-10T09:00:05.214Z,34.97
2022-08-10T09:05:58.474Z,35.13
2022-08-10T09:11:05.657Z,36.33
2022-08-10T09:16:24.207Z,36.45
2022-08-10T09:21:43.125Z,37.61
2022-08-10T09:26:52.555Z,38.10
2022-08-10T09:35:39.246Z,38.16
2022-08-10T09:38:02.039Z,38.71
2022-08-10T09:43:25.336Z,38.96
2022-08-10T09:48:42.497Z,39.68
2022-08-10T09:54:04.381Z,39.28
2022-08-10T09:59:29.308Z,39.33
2022-08-10T10:04:59.812Z,40.28
2022-08-10T10:10:14.226Z,40.31
2022-08-10T10:15:32.671Z,39.45
2022-08-10T10:20:52.569Z,39.63
2022-08-10T10:26:18.726Z,41.75
2022-08-10T10:31:39.432Z,42.32
2022-08-10T10:36:46.840Z,43.43
2022-08-10T10:42:14.644Z,42.71
2022-08-10T10:47:50.402Z,42.53
2022-08-10T10:53:11.814Z,41.18
2022-08-10T10:58:28.651Z,41.99
2022-08-10T11:03:53.644Z,42.15
2022-08-10T11:09:06.399Z,43.12
2022-08-10T11:14:29.544Z,41.94
2022-08-10T11:20:00.531Z,42.26
2022-08-10T11:25:21.382Z,43.46
2022-08-10T11:30:40.900Z,41.02
2022-08-10T11:35:49.648Z,43.20
2022-08-10T11:42:05.819Z,44.46
2022-08-10T11:46:43.686Z,44.32
2022-08-10T11:51:56.535Z,44.25
2022-08-10T11:57:02.970Z,43.97
2022-08-10T12:02:13.915Z,44.84
2022-08-10T12:10:01.774Z,43.24
2022-08-10T12:12:59.694Z,44.61
2022-08-10T12:18:16.510Z,43.15
2022-08-10T12:23:32.277Z,42.89
2022-08-10T12:28:52.001Z,44.32
2022-08-10T12:34:17.874Z,45.52
2022-08-10T12:39:30.286Z,45.39
2022-08-10T12:44:43.830Z,45.94
2022-08-10T12:50:29.600Z,46.64
2022-08-10T12:55:25.601Z,48.15
2022-08-10T13:00:35.045Z,47.72
2022-08-10T13:06:02.573Z,45.86
2022-08-10T13:12:34.005Z,47.88
2022-08-10T13:16:39.130Z,47.35
2022-08-10T13:21:46.117Z,45.51
2022-08-10T13:27:25.080Z,44.17
2022-08-10T13:32:27.081Z,45.05
2022-08-10T13:37:35.909Z,44.03
2022-08-10T13:42:42.746Z,41.98
2022-08-10T13:47:52.115Z,42.62
2022-08-10T13:53:01.478Z,44.10
2022-08-10T13:58:06.874Z,45.22
2022-08-10T14:03:13.526Z,45.54
2022-08-10T14:08:24.163Z,45.74
2022-08-10T14:13:29.464Z,47.50
2022-08-10T14:18:35.807Z,45.92
2022-08-10T14:23:52.876Z,43.50
2022-08-10T14:29:07.562Z,43.82
2022-08-10T14:34:14.437Z,44.32
2022-08-10T14:39:26.974Z,45.28
2022-08-10T14:44:42.473Z,41.72
2022-08-10T14:49:57.089Z,43.92
2022-08-10T14:55:19.667Z,44.79
2022-08-10T15:00:33.067Z,43.47
2022-08-10T15:05:41.893Z,43.35
2022-08-10T15:10:51.109Z,44.80
2022-08-10T15:16:11.885Z,45.87
2022-08-10T15:21:18.162Z,45.76
2022-08-10T15:26:29.251Z,45.16
2022-08-10T15:31:56.839Z,45.14
2022-08-10T15:37:39.732Z,44.45
2022-08-10T15:42:41.493Z,45.57
2022-08-10T15:48:03.409Z,44.47
2022-08-10T15:53:17.039Z,44.30
2022-08-10T15:58:37.711Z,42.05
2022-08-10T16:03:54.562Z,42.07
2022-08-10T16:10:23.483Z,42.47
2022-08-10T16:14:38.650Z,42.28
2022-08-10T16:19:53.095Z,42.11
2022-08-10T16:24:58.980Z,42.38
2022-08-10T16:30:08.515Z,41.95
2022-08-10T16:35:18.727Z,40.87
2022-08-10T16:40:28.015Z,40.80
2022-08-10T16:45:40.934Z,40.89
2022-08-10T16:50:56.326Z,41.29
2022-08-10T16:56:06.148Z,40.89
2022-08-10T17:01:18.107Z,39.82
2022-08-10T17:06:30.009Z,38.99
2022-08-10T17:11:38.816Z,35.68
2022-08-10T17:16:51.877Z,32.75
2022-08-10T17:22:00.404Z,31.46
2022-08-10T17:28:04.125Z,30.49
2022-08-10T17:32:45.202Z,30.05
2022-08-10T17:37:58.078Z,29.53
2022-08-10T17:43:04.376Z,29.43
2022-08-10T17:48:10.869Z,29.11
2022-08-10T17:53:19.739Z,28.76
2022-08-10T17:58:27.139Z,28.59
2022-08-10T18:03:37.028Z,28.29
2022-08-10T18:08:47.717Z,27.96
2022-08-10T18:14:02.624Z,27.77
2022-08-10T18:19:12.656Z,27.56
2022-08-10T18:24:21.985Z,27.27
2022-08-10T18:29:29.912Z,27.10
2022-08-10T18:34:39.968Z,26.79
2022-08-10T18:39:50.583Z,26.48
2022-08-10T18:45:02.390Z,26.35
2022-08-10T18:50:14.089Z,26.11
2022-08-10T18:55:27.742Z,25.91
2022-08-10T19:01:07.098Z,25.59
2022-08-10T19:06:38.085Z,25.30
2022-08-10T19:12:06.175Z,25.08
2022-08-10T19:18:03.020Z,24.83
2022-08-10T19:23:28.006Z,24.62
2022-08-10T19:28:47.426Z,24.40
2022-08-10T19:34:12.769Z,24.20
2022-08-10T19:39:28.783Z,24.18
2022-08-10T19:44:46.141Z,24.10
2022-08-10T19:50:01.256Z,23.90
2022-08-10T19:55:18.865Z,23.89
2022-08-10T20:00:36.541Z,23.76
2022-08-10T20:06:19.169Z,23.49
2022-08-10T20:11:45.156Z,23.23
2022-08-10T20:16:59.949Z,23.04
2022-08-10T20:22:13.774Z,22.91
2022-08-10T20:27:58.631Z,22.85
2022-08-10T20:33:01.958Z,22.66
2022-08-10T20:38:12.167Z,22.57
2022-08-10T20:43:27.565Z,22.36
2022-08-10T20:48:44.079Z,22.23
2022-08-10T20:53:56.369Z,22.12
2022-08-10T20:59:33.425Z,22.00
2022-08-10T21:04:53.035Z,22.00
2022-08-10T21:10:16.286Z,21.84
2022-08-10T21:15:55.617Z,21.77
2022-08-10T21:21:16.539Z,21.71
2022-08-10T21:26:33.630Z,21.61
2022-08-10T21:32:15.425Z,21.59
2022-08-10T21:37:56.710Z,21.51
2022-08-10T21:43:32.175Z,21.45
2022-08-10T21:49:23.076Z,21.33
2022-08-10T21:54:57.459Z,21.06
2022-08-10T22:00:27.348Z,21.10
2022-08-10T22:05:57.820Z,20.92
2022-08-10T22:11:22.901Z,20.83
2022-08-10T22:17:01.127Z,20.65
2022-08-10T22:22:31.215Z,20.51
2022-08-10T22:27:57.616Z,20.36
2022-08-10T22:33:44.670Z,20.33
2022-08-10T22:40:10.134Z,20.27
2022-08-10T22:45:15.156Z,20.24
2022-08-10T22:50:28.271Z,20.09
2022-08-10T22:55:57.584Z,20.05
2022-08-10T23:01:11.803Z,20.07
2022-08-10T23:06:22.156Z,20.03
2022-08-10T23:11:33.865Z,20.00
2022-08-10T23:17:06.043Z,19.83
2022-08-10T23:22:15.681Z,19.63
2022-08-10T23:27:39.328Z,19.59
2022-08-10T23:32:48.916Z,19.53
2022-08-10T23:37:57.093Z,19.36
2022-08-10T23:43:05.550Z,19.17
2022-08-10T23:48:11.463Z,19.15
2022-08-10T23:53:26.220Z,19.02
2022-08-10T23:58:42.083Z,19.00
